Time;durP1;ratioP1;P1;durP2;ratioP2;P2;SDS_P1;SDS_P2;PMS_P1;PMS_P2;Temp;Humidity;BMP_temperature;BMP_pressure;BME280_temperature;BME280_humidity;BME280_pressure;Samples;Min_cycle;Max_cycle;Signal;HPM_P1;HPM_P2
2022/04/13 00:01:21;;;;;;;61.95;35.42;;;;;;;;;;5073036;28;20047;-74
2022/04/13 00:04:25;;;;;;;57.83;33.30;;;;;;;;;;5071948;28;20090;-73
2022/04/13 00:07:29;;;;;;;55.47;34.15;;;;;;;;;;5072476;28;20060;-74
2022/04/13 00:10:39;;;;;;;63.53;35.33;;;;;;;;;;5072469;28;20499;-74
2022/04/13 00:13:45;;;;;;;52.58;32.97;;;;;;;;;;5071867;28;20040;-74
2022/04/13 00:16:50;;;;;;;55.17;33.90;;;;;;;;;;5060312;28;20053;-74
2022/04/13 00:19:54;;;;;;;51.53;32.53;;;;;;;;;;5071645;28;20102;-74
2022/04/13 00:22:59;;;;;;;61.90;34.03;;;;;;;;;;5072206;28;20043;-74
2022/04/13 00:26:03;;;;;;;55.95;35.47;;;;;;;;;;5071949;28;20047;-74
2022/04/13 00:29:07;;;;;;;60.25;33.67;;;;;;;;;;5072510;28;20118;-74
2022/04/13 00:32:13;;;;;;;52.33;33.70;;;;;;;;;;5071665;28;20051;-74
2022/04/13 00:35:17;;;;;;;47.78;31.65;;;;;;;;;;5072441;28;20039;-74
2022/04/13 00:38:22;;;;;;;55.28;32.83;;;;;;;;;;5071328;28;20040;-74
2022/04/13 00:41:27;;;;;;;55.85;33.88;;;;;;;;;;5072306;28;20047;-74
2022/04/13 00:44:31;;;;;;;50.63;31.38;;;;;;;;;;5070771;28;20047;-74
2022/04/13 00:47:40;;;;;;;51.50;31.90;;;;;;;;;;5071454;28;20044;-74
2022/04/13 00:50:45;;;;;;;61.63;33.97;;;;;;;;;;5071238;28;20051;-74
2022/04/13 00:53:51;;;;;;;45.85;30.67;;;;;;;;;;5071414;28;20175;-74
2022/04/13 00:56:56;;;;;;;52.45;32.58;;;;;;;;;;5058864;28;20290;-74
2022/04/13 01:00:01;;;;;;;55.33;29.73;;;;;;;;;;5071310;28;20044;-74
2022/04/13 01:03:07;;;;;;;55.65;30.75;;;;;;;;;;5070870;28;20039;-74
2022/04/13 01:06:15;;;;;;;44.90;28.83;;;;;;;;;;5070963;28;20044;-73
2022/04/13 01:09:19;;;;;;;45.42;26.90;;;;;;;;;;5070576;28;20424;-74
2022/04/13 01:12:24;;;;;;;39.97;26.27;;;;;;;;;;5071177;28;20043;-74
2022/04/13 01:15:28;;;;;;;43.97;24.90;;;;;;;;;;5070304;28;20055;-74
2022/04/13 01:18:34;;;;;;;44.25;25.45;;;;;;;;;;5071075;28;20040;-74
2022/04/13 01:21:48;;;;;;;51.25;24.52;;;;;;;;;;5070436;28;20044;-74
2022/04/13 01:24:52;;;;;;;44.38;26.65;;;;;;;;;;5071049;28;20036;-74
2022/04/13 01:27:57;;;;;;;44.50;27.80;;;;;;;;;;5070928;28;20503;-74
2022/04/13 01:31:01;;;;;;;41.85;25.65;;;;;;;;;;5071177;28;20588;-74
2022/04/13 01:34:06;;;;;;;43.28;25.75;;;;;;;;;;5071086;28;20044;-74
2022/04/13 01:37:10;;;;;;;35.55;24.75;;;;;;;;;;5071762;28;20217;-74
2022/04/13 01:40:14;;;;;;;44.42;25.83;;;;;;;;;;5070258;28;20043;-74
2022/04/13 01:43:19;;;;;;;40.30;23.17;;;;;;;;;;5071012;28;20052;-74
2022/04/13 01:46:24;;;;;;;34.40;23.58;;;;;;;;;;5070860;28;20384;-74
2022/04/13 01:49:28;;;;;;;44.90;24.48;;;;;;;;;;5070982;28;20048;-74
2022/04/13 01:52:33;;;;;;;40.28;23.52;;;;;;;;;;5070947;28;20044;-74
2022/04/13 01:55:37;;;;;;;38.42;22.35;;;;;;;;;;5070536;28;20047;-74
2022/04/13 01:58:41;;;;;;;34.00;21.90;;;;;;;;;;5069733;28;20052;-74
2022/04/13 02:01:46;;;;;;;35.40;23.25;;;;;;;;;;5075908;28;20048;-74
2022/04/13 02:04:50;;;;;;;31.30;19.67;;;;;;;;;;5069685;28;20051;-74
2022/04/13 02:07:54;;;;;;;38.60;20.95;;;;;;;;;;5069551;28;20059;-74
2022/04/13 02:10:59;;;;;;;35.67;20.77;;;;;;;;;;5071720;28;20055;-74
2022/04/13 02:14:03;;;;;;;30.63;19.00;;;;;;;;;;5074298;28;20514;-74
2022/04/13 02:17:07;;;;;;;31.70;18.65;;;;;;;;;;5074505;28;20052;-74
2022/04/13 02:20:12;;;;;;;27.42;17.90;;;;;;;;;;5073588;28;20052;-74
2022/04/13 02:23:16;;;;;;;30.05;17.13;;;;;;;;;;5074312;28;20043;-74
2022/04/13 02:26:22;;;;;;;31.48;17.90;;;;;;;;;;5073562;28;20055;-74
2022/04/13 02:29:27;;;;;;;29.08;17.60;;;;;;;;;;5074112;28;20504;-74
2022/04/13 02:32:31;;;;;;;31.35;16.30;;;;;;;;;;5073962;28;20050;-74
2022/04/13 02:35:35;;;;;;;27.38;15.70;;;;;;;;;;5074156;28;20044;-74
2022/04/13 02:38:40;;;;;;;30.15;16.65;;;;;;;;;;5073810;28;20035;-74
2022/04/13 02:41:44;;;;;;;27.65;16.65;;;;;;;;;;5073993;28;20052;-74
2022/04/13 02:44:49;;;;;;;26.42;16.48;;;;;;;;;;5074047;28;20496;-74
2022/04/13 02:47:53;;;;;;;29.25;16.35;;;;;;;;;;5073551;28;20051;-74
2022/04/13 02:50:57;;;;;;;30.65;17.67;;;;;;;;;;5073355;28;20055;-74
2022/04/13 02:54:02;;;;;;;32.75;17.17;;;;;;;;;;5072924;28;20499;-74
2022/04/13 02:57:06;;;;;;;31.05;16.33;;;;;;;;;;5074108;28;20444;-74
2022/04/13 03:00:10;;;;;;;27.33;16.83;;;;;;;;;;5072696;28;20069;-74
2022/04/13 03:03:14;;;;;;;27.23;16.98;;;;;;;;;;5072708;28;20051;-74
2022/04/13 03:06:19;;;;;;;25.27;16.08;;;;;;;;;;5073346;28;20044;-74
2022/04/13 03:09:23;;;;;;;26.25;16.88;;;;;;;;;;5073330;28;20059;-74
2022/04/13 03:12:28;;;;;;;25.77;16.63;;;;;;;;;;5073501;28;20495;-74
2022/04/13 03:15:32;;;;;;;27.13;15.82;;;;;;;;;;5072509;28;20408;-73
2022/04/13 03:18:37;;;;;;;25.42;15.80;;;;;;;;;;5073349;28;20047;-74
2022/04/13 03:21:41;;;;;;;27.02;16.55;;;;;;;;;;5072763;28;20044;-74
2022/04/13 03:24:46;;;;;;;28.75;15.43;;;;;;;;;;5073064;28;20308;-74
2022/04/13 03:27:50;;;;;;;26.83;15.88;;;;;;;;;;5072352;28;20035;-74
2022/04/13 03:30:56;;;;;;;26.23;15.95;;;;;;;;;;5072969;28;20055;-74
2022/04/13 03:34:00;;;;;;;24.33;15.60;;;;;;;;;;5049158;28;20059;-74
2022/04/13 03:37:04;;;;;;;31.67;15.63;;;;;;;;;;5072893;28;20064;-74
2022/04/13 03:40:11;;;;;;;26.20;15.85;;;;;;;;;;5073021;28;20047;-74
2022/04/13 03:43:16;;;;;;;28.80;15.00;;;;;;;;;;5072741;28;20507;-74
2022/04/13 03:46:20;;;;;;;24.73;15.77;;;;;;;;;;5072925;28;20381;-74
2022/04/13 03:49:24;;;;;;;25.20;15.40;;;;;;;;;;5072759;28;20067;-74
2022/04/13 03:52:31;;;;;;;22.20;14.85;;;;;;;;;;5072651;28;20047;-74
2022/04/13 03:55:35;;;;;;;25.48;15.60;;;;;;;;;;5072712;28;20051;-74
2022/04/13 03:58:43;;;;;;;27.38;15.43;;;;;;;;;;5072602;28;20051;-74
2022/04/13 04:01:47;;;;;;;30.63;14.63;;;;;;;;;;5072404;28;20220;-74
2022/04/13 04:04:51;;;;;;;25.77;16.42;;;;;;;;;;5072341;28;20051;-74
2022/04/13 04:07:56;;;;;;;25.95;16.10;;;;;;;;;;5071078;28;20048;-74
2022/04/13 04:11:00;;;;;;;25.05;15.38;;;;;;;;;;5059620;28;20213;-74
2022/04/13 04:14:04;;;;;;;29.50;15.32;;;;;;;;;;5071971;28;20044;-74
2022/04/13 04:17:08;;;;;;;26.17;15.57;;;;;;;;;;5072035;28;20063;-74
2022/04/13 04:20:13;;;;;;;27.38;19.48;;;;;;;;;;5072097;28;20044;-74
2022/04/13 04:23:17;;;;;;;27.88;15.57;;;;;;;;;;5071942;28;20048;-74
2022/04/13 04:26:22;;;;;;;29.55;15.70;;;;;;;;;;5071941;28;20047;-74
2022/04/13 04:29:26;;;;;;;29.27;15.27;;;;;;;;;;5070764;28;20047;-74
2022/04/13 04:32:30;;;;;;;20.48;14.35;;;;;;;;;;5071915;28;20052;-74
2022/04/13 04:35:35;;;;;;;46.25;15.23;;;;;;;;;;5071994;28;20044;-74
2022/04/13 04:38:39;;;;;;;47.60;16.48;;;;;;;;;;5071679;28;20048;-74
2022/04/13 04:41:44;;;;;;;30.23;15.02;;;;;;;;;;5071722;28;20043;-74
2022/04/13 04:44:48;;;;;;;26.83;15.15;;;;;;;;;;5071669;28;20049;-74
2022/04/13 04:47:53;;;;;;;55.63;17.60;;;;;;;;;;5071552;28;20392;-74
2022/04/13 04:50:57;;;;;;;31.85;15.70;;;;;;;;;;5071236;28;20412;-74
2022/04/13 04:54:02;;;;;;;30.55;16.25;;;;;;;;;;5071177;28;20039;-74
2022/04/13 04:57:08;;;;;;;29.33;15.00;;;;;;;;;;5070221;28;20411;-73
2022/04/13 05:00:14;;;;;;;33.75;15.20;;;;;;;;;;5071357;28;20039;-73
2022/04/13 05:03:18;;;;;;;35.05;14.40;;;;;;;;;;5071232;28;20051;-73
2022/04/13 05:06:23;;;;;;;34.08;14.07;;;;;;;;;;5070960;28;20044;-73
2022/04/13 05:09:28;;;;;;;37.63;14.57;;;;;;;;;;5071252;28;20043;-73
2022/04/13 05:12:41;;;;;;;33.95;14.40;;;;;;;;;;5071091;28;20384;-73
2022/04/13 05:15:45;;;;;;;26.00;13.30;;;;;;;;;;5071158;28;20040;-73
2022/04/13 05:18:50;;;;;;;27.20;14.57;;;;;;;;;;5071109;28;20274;-73
2022/04/13 05:21:54;;;;;;;32.38;15.55;;;;;;;;;;5071229;28;20055;-73
2022/04/13 05:25:03;;;;;;;44.33;18.58;;;;;;;;;;5071060;28;20059;-73
2022/04/13 05:28:07;;;;;;;25.20;16.38;;;;;;;;;;5070966;28;20056;-73
2022/04/13 05:31:12;;;;;;;26.08;14.60;;;;;;;;;;5070853;28;20051;-73
2022/04/13 05:34:16;;;;;;;39.00;16.27;;;;;;;;;;5069882;28;20614;-75
2022/04/13 05:37:20;;;;;;;30.20;16.02;;;;;;;;;;5070763;28;20047;-74
2022/04/13 05:40:25;;;;;;;34.63;16.92;;;;;;;;;;5058778;28;20039;-75
2022/04/13 05:43:30;;;;;;;39.47;17.63;;;;;;;;;;5069925;28;20512;-74
2022/04/13 05:46:34;;;;;;;34.88;19.15;;;;;;;;;;5073246;28;20505;-73
2022/04/13 05:49:39;;;;;;;39.63;19.35;;;;;;;;;;5073887;28;20053;-76
2022/04/13 05:52:43;;;;;;;44.25;17.80;;;;;;;;;;5062677;28;20059;-79
2022/04/13 05:55:55;;;;;;;35.53;16.33;;;;;;;;;;5075178;28;20047;-78
2022/04/13 05:59:00;;;;;;;50.58;21.45;;;;;;;;;;5073694;28;20128;-79
2022/04/13 06:02:04;;;;;;;54.65;20.85;;;;;;;;;;5074617;28;20051;-79
2022/04/13 06:05:09;;;;;;;49.92;21.08;;;;;;;;;;5073563;28;20400;-78
2022/04/13 06:08:13;;;;;;;35.15;19.02;;;;;;;;;;5074468;28;20416;-79
2022/04/13 06:11:17;;;;;;;31.27;18.67;;;;;;;;;;5074429;28;20052;-79
2022/04/13 06:14:22;;;;;;;34.88;18.65;;;;;;;;;;5074688;28;20074;-79
2022/04/13 06:17:26;;;;;;;31.52;17.63;;;;;;;;;;5073716;28;20052;-84
2022/04/13 06:20:31;;;;;;;26.50;16.42;;;;;;;;;;5074566;28;20412;-82
2022/04/13 06:23:35;;;;;;;36.95;18.80;;;;;;;;;;5074316;28;20052;-73
2022/04/13 06:26:40;;;;;;;35.85;17.63;;;;;;;;;;5073484;28;20048;-74
2022/04/13 06:29:44;;;;;;;36.67;17.23;;;;;;;;;;5074511;28;20059;-87
2022/04/13 06:32:48;;;;;;;27.00;15.77;;;;;;;;;;5073829;28;20043;-76
2022/04/13 06:35:53;;;;;;;32.70;15.55;;;;;;;;;;5073363;28;20393;-76
2022/04/13 06:38:57;;;;;;;38.63;15.95;;;;;;;;;;5073859;28;20043;-74
2022/04/13 06:42:01;;;;;;;32.67;16.10;;;;;;;;;;5061334;28;20044;-75
2022/04/13 06:45:07;;;;;;;29.98;15.18;;;;;;;;;;5073822;28;20047;-78
2022/04/13 06:48:11;;;;;;;39.08;15.38;;;;;;;;;;5073732;28;20068;-72
2022/04/13 06:51:15;;;;;;;37.58;14.10;;;;;;;;;;5073468;28;20056;-71
2022/04/13 06:54:20;;;;;;;36.20;15.18;;;;;;;;;;5073001;28;20400;-73
2022/04/13 06:57:24;;;;;;;32.40;15.30;;;;;;;;;;5073312;28;20048;-71
2022/04/13 07:00:28;;;;;;;29.15;14.48;;;;;;;;;;5073506;28;20043;-71
2022/04/13 07:03:34;;;;;;;30.40;13.52;;;;;;;;;;5072905;28;20051;-69
2022/04/13 07:06:38;;;;;;;29.60;15.50;;;;;;;;;;5072388;28;20052;-70
2022/04/13 07:09:42;;;;;;;40.08;14.30;;;;;;;;;;5072048;28;20047;-69
2022/04/13 07:12:47;;;;;;;35.13;13.23;;;;;;;;;;5072887;28;20049;-67
2022/04/13 07:15:52;;;;;;;33.53;12.80;;;;;;;;;;5072961;28;20388;-72
2022/04/13 07:18:57;;;;;;;30.58;12.93;;;;;;;;;;5072188;28;20041;-68
2022/04/13 07:22:01;;;;;;;31.02;12.32;;;;;;;;;;5073442;28;20055;-69
2022/04/13 07:25:05;;;;;;;32.88;12.68;;;;;;;;;;5072795;28;20404;-68
2022/04/13 07:28:10;;;;;;;34.22;14.20;;;;;;;;;;5072894;28;20044;-67
2022/04/13 07:31:15;;;;;;;26.27;14.38;;;;;;;;;;5071823;28;20056;-68
2022/04/13 07:34:19;;;;;;;39.83;16.25;;;;;;;;;;5072887;28;20039;-69
2022/04/13 07:37:23;;;;;;;38.30;15.85;;;;;;;;;;5072842;28;20044;-67
2022/04/13 07:40:28;;;;;;;39.80;17.10;;;;;;;;;;5072571;28;20404;-67
2022/04/13 07:43:32;;;;;;;27.05;15.45;;;;;;;;;;5071702;28;20062;-68
2022/04/13 07:46:37;;;;;;;36.75;16.33;;;;;;;;;;5071704;28;20051;-68
2022/04/13 07:49:42;;;;;;;46.88;14.63;;;;;;;;;;5072109;28;20051;-68
2022/04/13 07:52:47;;;;;;;38.13;14.15;;;;;;;;;;5072470;28;20071;-71
2022/04/13 07:55:51;;;;;;;27.65;13.23;;;;;;;;;;5072318;28;20236;-72
2022/04/13 07:58:55;;;;;;;21.70;13.50;;;;;;;;;;5072688;28;20391;-69
2022/04/13 08:02:01;;;;;;;24.58;11.40;;;;;;;;;;5072106;28;20499;-71
2022/04/13 08:05:05;;;;;;;18.20;11.00;;;;;;;;;;5071936;28;20043;-70
2022/04/13 08:08:10;;;;;;;17.00;10.10;;;;;;;;;;5071043;28;20055;-71
2022/04/13 08:11:14;;;;;;;20.80;10.75;;;;;;;;;;5071846;28;20476;-68
2022/04/13 08:14:22;;;;;;;20.02;10.25;;;;;;;;;;5071994;28;20043;-68
2022/04/13 08:17:27;;;;;;;16.75;9.93;;;;;;;;;;5072068;28;20420;-71
2022/04/13 08:20:31;;;;;;;14.13;9.45;;;;;;;;;;5059675;28;20489;-71
2022/04/13 08:23:36;;;;;;;12.25;7.65;;;;;;;;;;5071582;28;20043;-69
2022/04/13 08:26:40;;;;;;;20.77;8.13;;;;;;;;;;5071621;28;20049;-71
2022/04/13 08:29:46;;;;;;;18.42;8.10;;;;;;;;;;5071613;28;20405;-72
2022/04/13 08:32:50;;;;;;;15.52;7.05;;;;;;;;;;5071726;28;20044;-69
2022/04/13 08:35:54;;;;;;;16.25;7.20;;;;;;;;;;5071749;28;20183;-69
2022/04/13 08:38:59;;;;;;;14.07;7.07;;;;;;;;;;5071745;28;20044;-69
2022/04/13 08:42:06;;;;;;;17.55;7.40;;;;;;;;;;5071637;28;20055;-71
2022/04/13 08:45:22;;;;;;;18.55;6.45;;;;;;;;;;5071127;28;20049;-70
2022/04/13 08:48:27;;;;;;;10.45;4.82;;;;;;;;;;5071541;28;20033;-69
2022/04/13 08:51:34;;;;;;;18.13;6.28;;;;;;;;;;5070763;28;20052;-69
2022/04/13 08:54:57;;;;;;;16.40;6.60;;;;;;;;;;5071155;28;20043;-70
2022/04/13 08:58:01;;;;;;;9.82;5.50;;;;;;;;;;5071085;28;20401;-69
2022/04/13 09:01:12;;;;;;;11.23;5.88;;;;;;;;;;5071349;28;20036;-71
2022/04/13 09:04:18;;;;;;;9.57;5.32;;;;;;;;;;5070450;28;20042;-68
2022/04/13 09:07:23;;;;;;;13.80;5.43;;;;;;;;;;5070398;28;20396;-69
2022/04/13 09:10:27;;;;;;;10.90;5.50;;;;;;;;;;5070765;28;20519;-70
2022/04/13 09:13:35;;;;;;;13.43;6.30;;;;;;;;;;5070861;28;20056;-68
2022/04/13 09:16:41;;;;;;;18.88;6.30;;;;;;;;;;5071209;28;20048;-68
2022/04/13 09:19:47;;;;;;;11.25;5.82;;;;;;;;;;5070897;28;20393;-67
2022/04/13 09:22:54;;;;;;;22.23;7.10;;;;;;;;;;5070903;28;20033;-68
2022/04/13 09:25:58;;;;;;;12.90;6.45;;;;;;;;;;5071010;28;20033;-67
2022/04/13 09:29:02;;;;;;;14.85;6.57;;;;;;;;;;5070710;28;20504;-67
2022/04/13 09:32:08;;;;;;;9.90;5.43;;;;;;;;;;5070575;28;20329;-68
2022/04/13 09:35:12;;;;;;;10.48;6.00;;;;;;;;;;5070535;28;20507;-69
2022/04/13 09:38:19;;;;;;;12.68;6.60;;;;;;;;;;5070768;28;20055;-68
2022/04/13 09:41:32;;;;;;;18.15;6.80;;;;;;;;;;5070615;28;20060;-66
2022/04/13 09:44:40;;;;;;;9.00;5.38;;;;;;;;;;5070678;28;20055;-68
2022/04/13 09:47:46;;;;;;;27.05;7.40;;;;;;;;;;5070833;28;20044;-69
2022/04/13 09:50:51;;;;;;;13.18;6.20;;;;;;;;;;5070291;28;20048;-67
2022/04/13 09:53:55;;;;;;;11.25;6.60;;;;;;;;;;5070168;28;20045;-67
2022/04/13 09:57:00;;;;;;;10.60;6.25;;;;;;;;;;5070433;28;20049;-68
2022/04/13 10:00:05;;;;;;;11.85;6.68;;;;;;;;;;5070504;28;20036;-66
2022/04/13 10:03:19;;;;;;;13.98;6.40;;;;;;;;;;5070043;28;20061;-67
2022/04/13 10:06:33;;;;;;;15.25;6.63;;;;;;;;;;5070142;28;20053;-66
2022/04/13 10:09:38;;;;;;;10.20;5.65;;;;;;;;;;5070562;28;20512;-71
2022/04/13 10:12:49;;;;;;;13.13;7.57;;;;;;;;;;5069350;28;20048;-71
2022/04/13 10:15:57;;;;;;;15.32;5.20;;;;;;;;;;5069257;28;20190;-67
2022/04/13 10:19:03;;;;;;;11.82;6.00;;;;;;;;;;5069534;28;20527;-68
2022/04/13 10:22:07;;;;;;;11.85;5.68;;;;;;;;;;5070013;28;20539;-67
2022/04/13 10:25:20;;;;;;;10.13;5.70;;;;;;;;;;5070040;28;20067;-68
2022/04/13 10:28:26;;;;;;;8.38;5.35;;;;;;;;;;5070021;28;20037;-68
2022/04/13 10:31:30;;;;;;;10.13;5.18;;;;;;;;;;5070407;28;20048;-69
2022/04/13 10:34:35;;;;;;;10.18;5.00;;;;;;;;;;5073740;28;20163;-68
2022/04/13 10:37:40;;;;;;;11.02;5.18;;;;;;;;;;5073711;28;20503;-76
2022/04/13 10:40:44;;;;;;;9.32;4.53;;;;;;;;;;5073770;28;20036;-74
2022/04/13 10:43:50;;;;;;;9.65;5.20;;;;;;;;;;5073903;28;20045;-72
2022/04/13 10:46:55;;;;;;;9.65;5.28;;;;;;;;;;5074160;28;20056;-67
2022/04/13 10:50:01;;;;;;;7.72;4.68;;;;;;;;;;5073931;28;20052;-69
2022/04/13 10:53:20;;;;;;;9.80;5.70;;;;;;;;;;5073423;28;20377;-69
2022/04/13 10:56:27;;;;;;;9.40;5.35;;;;;;;;;;5073548;28;20063;-68
2022/04/13 10:59:44;;;;;;;11.02;6.05;;;;;;;;;;5073528;28;20032;-71
2022/04/13 11:02:56;;;;;;;11.48;6.22;;;;;;;;;;5073535;28;20036;-71
2022/04/13 11:06:01;;;;;;;12.90;5.75;;;;;;;;;;5073522;28;20037;-70
2022/04/13 11:09:09;;;;;;;12.38;5.65;;;;;;;;;;5073274;28;20246;-69
2022/04/13 11:12:13;;;;;;;11.10;5.38;;;;;;;;;;5072944;28;20424;-69
2022/04/13 11:15:18;;;;;;;11.85;5.80;;;;;;;;;;5072181;28;20037;-69
2022/04/13 11:18:22;;;;;;;8.93;5.28;;;;;;;;;;5073408;28;20421;-69
2022/04/13 11:21:29;;;;;;;48.90;8.55;;;;;;;;;;5073325;28;20032;-70
2022/04/13 11:24:34;;;;;;;12.98;5.50;;;;;;;;;;5073386;28;20522;-71
2022/04/13 11:27:51;;;;;;;13.25;5.95;;;;;;;;;;5073281;28;20069;-71
2022/04/13 11:31:09;;;;;;;9.40;5.28;;;;;;;;;;5072866;28;20357;-68
2022/04/13 11:34:13;;;;;;;16.35;6.45;;;;;;;;;;5071973;28;20040;-70
2022/04/13 11:37:24;;;;;;;10.85;6.05;;;;;;;;;;5073243;28;20047;-69
2022/04/13 11:40:29;;;;;;;9.82;5.85;;;;;;;;;;5072827;28;20203;-70
2022/04/13 11:43:34;;;;;;;10.88;5.53;;;;;;;;;;5071683;28;20508;-70
2022/04/13 11:46:39;;;;;;;9.20;5.00;;;;;;;;;;5072798;28;20044;-70
2022/04/13 11:49:56;;;;;;;15.90;5.63;;;;;;;;;;5072911;28;20049;-70
2022/04/13 11:53:05;;;;;;;14.02;5.20;;;;;;;;;;5072567;28;20045;-71
2022/04/13 11:56:10;;;;;;;8.43;5.20;;;;;;;;;;5072833;28;20037;-70
2022/04/13 11:59:37;;;;;;;10.27;5.28;;;;;;;;;;5072558;28;20033;-69
2022/04/13 12:02:42;;;;;;;12.52;5.40;;;;;;;;;;5072203;28;20040;-72
2022/04/13 12:05:48;;;;;;;8.65;5.28;;;;;;;;;;5071939;28;20029;-68
2022/04/13 12:08:59;;;;;;;10.43;4.65;;;;;;;;;;5072267;28;20052;-68
2022/04/13 12:12:04;;;;;;;11.07;4.40;;;;;;;;;;5071281;28;20521;-67
2022/04/13 12:15:08;;;;;;;8.20;3.92;;;;;;;;;;5072379;28;20043;-65
2022/04/13 12:18:14;;;;;;;6.75;3.60;;;;;;;;;;5071967;28;20044;-72
2022/04/13 12:21:24;;;;;;;11.10;4.38;;;;;;;;;;5072318;28;20473;-67
2022/04/13 12:24:29;;;;;;;10.05;4.57;;;;;;;;;;5071987;28;20388;-70
2022/04/13 12:27:34;;;;;;;8.80;4.80;;;;;;;;;;5071926;28;20049;-71
2022/04/13 12:30:38;;;;;;;14.85;6.07;;;;;;;;;;5071636;28;20052;-69
2022/04/13 12:33:42;;;;;;;11.95;5.60;;;;;;;;;;5071668;28;20040;-72
2022/04/13 12:37:06;;;;;;;11.45;5.55;;;;;;;;;;5072196;28;20093;-69
2022/04/13 12:40:20;;;;;;;13.82;5.13;;;;;;;;;;5071857;28;20051;-68
2022/04/13 12:43:26;;;;;;;16.80;7.20;;;;;;;;;;5071491;28;20040;-68
2022/04/13 12:46:34;;;;;;;22.55;6.00;;;;;;;;;;5071495;28;20435;-69
2022/04/13 12:49:38;;;;;;;18.17;6.40;;;;;;;;;;5071864;28;20039;-68
2022/04/13 12:52:43;;;;;;;11.40;5.82;;;;;;;;;;5071310;28;20523;-70
2022/04/13 12:55:51;;;;;;;14.15;6.35;;;;;;;;;;5071160;28;20029;-71
2022/04/13 12:58:56;;;;;;;9.75;5.75;;;;;;;;;;5071443;28;20040;-70
2022/04/13 13:02:00;;;;;;;12.07;6.28;;;;;;;;;;5071595;28;20037;-67
2022/04/13 13:05:05;;;;;;;12.65;5.40;;;;;;;;;;5071412;28;20059;-68
2022/04/13 13:08:09;;;;;;;12.68;6.38;;;;;;;;;;5070881;28;20508;-67
2022/04/13 13:11:13;;;;;;;14.07;6.43;;;;;;;;;;5071358;28;20388;-69
2022/04/13 13:14:18;;;;;;;12.95;5.63;;;;;;;;;;5070907;28;20028;-69
2022/04/13 13:17:24;;;;;;;16.05;6.80;;;;;;;;;;5071287;28;20047;-71
2022/04/13 13:20:28;;;;;;;20.02;6.15;;;;;;;;;;5071320;28;20044;-71
2022/04/13 13:23:32;;;;;;;15.32;7.80;;;;;;;;;;5070790;28;20057;-71
2022/04/13 13:26:36;;;;;;;21.90;7.00;;;;;;;;;;5070930;28;20033;-69
2022/04/13 13:29:44;;;;;;;21.23;7.50;;;;;;;;;;5070912;28;20045;-70
2022/04/13 13:32:53;;;;;;;12.27;6.65;;;;;;;;;;5071029;28;20521;-68
2022/04/13 13:35:58;;;;;;;9.95;5.63;;;;;;;;;;5071015;28;20028;-69
2022/04/13 13:39:03;;;;;;;22.10;7.70;;;;;;;;;;5070672;28;20040;-72
2022/04/13 13:42:09;;;;;;;13.55;6.80;;;;;;;;;;5070694;28;20032;-68
2022/04/13 13:45:19;;;;;;;18.30;7.25;;;;;;;;;;5071428;28;20311;-67
2022/04/13 13:48:27;;;;;;;9.50;6.07;;;;;;;;;;5070717;28;20032;-67
2022/04/13 13:51:32;;;;;;;12.63;6.97;;;;;;;;;;5069929;28;20052;-67
2022/04/13 13:54:37;;;;;;;14.77;6.40;;;;;;;;;;5071103;28;20043;-68
2022/04/13 13:57:42;;;;;;;14.68;7.05;;;;;;;;;;5070822;28;20040;-68
2022/04/13 14:00:46;;;;;;;12.23;5.97;;;;;;;;;;5070592;28;20040;-67
2022/04/13 14:03:50;;;;;;;14.13;6.30;;;;;;;;;;5070333;28;20408;-69
2022/04/13 14:06:55;;;;;;;10.50;5.68;;;;;;;;;;5071820;28;20044;-68
2022/04/13 14:09:59;;;;;;;10.65;5.45;;;;;;;;;;5074849;28;20044;-68
2022/04/13 14:13:08;;;;;;;10.23;6.03;;;;;;;;;;5075248;28;20071;-68
2022/04/13 14:16:12;;;;;;;15.05;5.82;;;;;;;;;;5075556;28;20040;-67
2022/04/13 14:19:16;;;;;;;16.77;6.78;;;;;;;;;;5074485;28;20058;-67
2022/04/13 14:22:21;;;;;;;10.40;5.82;;;;;;;;;;5074460;28;20106;-67
2022/04/13 14:25:25;;;;;;;17.23;5.82;;;;;;;;;;5074296;28;20438;-68
2022/04/13 14:28:30;;;;;;;11.75;5.55;;;;;;;;;;5074333;28;20044;-67
2022/04/13 14:31:34;;;;;;;11.13;5.50;;;;;;;;;;5073841;28;20048;-67
2022/04/13 14:34:39;;;;;;;14.27;6.10;;;;;;;;;;5073113;28;20047;-67
2022/04/13 14:37:43;;;;;;;12.23;4.97;;;;;;;;;;5074487;28;20053;-67
2022/04/13 14:40:47;;;;;;;8.90;4.53;;;;;;;;;;5074119;28;20400;-68
2022/04/13 14:43:52;;;;;;;13.07;5.65;;;;;;;;;;5073845;28;20040;-68
2022/04/13 14:46:56;;;;;;;7.43;4.40;;;;;;;;;;5073910;28;20047;-67
2022/04/13 14:50:01;;;;;;;10.88;4.68;;;;;;;;;;5074337;28;20037;-67
2022/04/13 14:53:07;;;;;;;7.55;5.15;;;;;;;;;;5073771;28;20515;-67
2022/04/13 14:56:11;;;;;;;10.38;4.55;;;;;;;;;;5073549;28;20033;-67
2022/04/13 14:59:15;;;;;;;15.00;5.32;;;;;;;;;;5073835;28;20040;-67
2022/04/13 15:02:20;;;;;;;6.95;4.15;;;;;;;;;;5073266;28;20040;-67
2022/04/13 15:05:24;;;;;;;7.43;4.65;;;;;;;;;;5073411;28;20476;-67
2022/04/13 15:08:29;;;;;;;12.43;5.32;;;;;;;;;;5073259;28;20119;-68
2022/04/13 15:11:33;;;;;;;13.18;5.40;;;;;;;;;;5073010;28;20048;-67
2022/04/13 15:14:38;;;;;;;8.13;4.38;;;;;;;;;;5073430;28;20029;-67
2022/04/13 15:17:43;;;;;;;15.35;5.53;;;;;;;;;;5072577;28;20036;-67
2022/04/13 15:20:47;;;;;;;20.52;5.32;;;;;;;;;;5073338;28;20051;-66
2022/04/13 15:23:51;;;;;;;7.55;3.88;;;;;;;;;;5073280;28;20032;-67
2022/04/13 15:26:56;;;;;;;9.88;4.50;;;;;;;;;;5073091;28;20040;-67
2022/04/13 15:30:01;;;;;;;22.48;5.13;;;;;;;;;;5072788;28;20036;-67
2022/04/13 15:33:05;;;;;;;14.55;4.53;;;;;;;;;;5072841;28;20041;-67
2022/04/13 15:36:10;;;;;;;14.02;5.95;;;;;;;;;;5073077;28;20044;-67
2022/04/13 15:39:15;;;;;;;14.55;5.60;;;;;;;;;;5072911;28;20067;-67
2022/04/13 15:42:20;;;;;;;11.82;5.72;;;;;;;;;;5072434;28;20040;-67
2022/04/13 15:45:24;;;;;;;14.63;5.63;;;;;;;;;;5072357;28;20037;-68
2022/04/13 15:48:29;;;;;;;18.92;8.52;;;;;;;;;;5072805;28;20032;-70
2022/04/13 15:51:36;;;;;;;14.88;7.82;;;;;;;;;;5072111;28;20044;-71
2022/04/13 15:54:40;;;;;;;14.60;5.80;;;;;;;;;;5072055;28;20032;-72
2022/04/13 15:57:45;;;;;;;19.42;6.55;;;;;;;;;;5072586;28;20472;-66
2022/04/13 16:00:50;;;;;;;16.67;5.57;;;;;;;;;;5071910;28;20527;-66
2022/04/13 16:03:54;;;;;;;19.05;5.53;;;;;;;;;;5072031;28;20043;-68
2022/04/13 16:06:58;;;;;;;11.95;5.20;;;;;;;;;;5072041;28;20509;-71
2022/04/13 16:10:03;;;;;;;16.88;6.00;;;;;;;;;;5071461;28;20040;-71
2022/04/13 16:13:07;;;;;;;15.43;5.60;;;;;;;;;;5071414;28;20048;-70
2022/04/13 16:16:11;;;;;;;13.80;6.28;;;;;;;;;;5071597;28;20526;-70
2022/04/13 16:19:16;;;;;;;19.65;6.55;;;;;;;;;;5070553;28;20043;-69
2022/04/13 16:22:23;;;;;;;14.52;6.18;;;;;;;;;;5070439;28;20041;-69
2022/04/13 16:25:27;;;;;;;15.63;5.53;;;;;;;;;;5071995;28;20044;-69
2022/04/13 16:28:32;;;;;;;34.83;5.70;;;;;;;;;;5071104;28;20056;-70
2022/04/13 16:31:36;;;;;;;10.40;4.70;;;;;;;;;;5071520;28;20514;-69
2022/04/13 16:34:40;;;;;;;14.82;8.18;;;;;;;;;;5071754;28;20059;-69
2022/04/13 16:37:45;;;;;;;15.25;5.65;;;;;;;;;;5071641;28;20049;-69
2022/04/13 16:40:49;;;;;;;26.05;6.28;;;;;;;;;;5071320;28;20041;-69
2022/04/13 16:43:54;;;;;;;22.55;6.53;;;;;;;;;;5071310;28;20033;-69
2022/04/13 16:46:58;;;;;;;17.13;5.70;;;;;;;;;;5071184;28;20369;-71
2022/04/13 16:50:03;;;;;;;15.18;5.57;;;;;;;;;;5070820;28;20094;-71
2022/04/13 16:53:12;;;;;;;17.90;6.40;;;;;;;;;;5071208;28;20047;-69
2022/04/13 16:56:16;;;;;;;23.40;6.40;;;;;;;;;;5071036;28;20495;-68
2022/04/13 16:59:20;;;;;;;21.25;7.63;;;;;;;;;;5071025;28;20040;-66
2022/04/13 17:02:24;;;;;;;25.35;6.93;;;;;;;;;;5070939;28;20036;-72
2022/04/13 17:05:29;;;;;;;23.25;7.45;;;;;;;;;;5071087;28;20055;-70
2022/04/13 17:08:33;;;;;;;21.55;6.82;;;;;;;;;;5069639;28;20055;-73
2022/04/13 17:11:38;;;;;;;25.95;7.32;;;;;;;;;;5069847;28;20064;-73
2022/04/13 17:14:42;;;;;;;16.85;7.95;;;;;;;;;;5071179;28;20389;-74
2022/04/13 17:17:46;;;;;;;21.48;7.03;;;;;;;;;;5070798;28;20037;-73
2022/04/13 17:20:51;;;;;;;20.10;9.50;;;;;;;;;;5070233;28;20051;-71
2022/04/13 17:23:55;;;;;;;17.35;6.70;;;;;;;;;;5070861;28;20044;-71
2022/04/13 17:26:59;;;;;;;15.65;6.25;;;;;;;;;;5070724;28;20047;-72
2022/04/13 17:30:04;;;;;;;21.30;6.70;;;;;;;;;;5070702;28;20044;-71
2022/04/13 17:33:09;;;;;;;17.13;5.88;;;;;;;;;;5070700;28;20385;-71
2022/04/13 17:36:14;;;;;;;24.73;6.20;;;;;;;;;;5070550;28;20033;-70
2022/04/13 17:39:18;;;;;;;16.33;5.90;;;;;;;;;;5070609;28;20405;-70
2022/04/13 17:42:22;;;;;;;13.23;5.28;;;;;;;;;;5069381;28;20046;-70
2022/04/13 17:45:27;;;;;;;18.58;6.28;;;;;;;;;;5070121;28;20496;-71
2022/04/13 17:48:31;;;;;;;19.60;6.18;;;;;;;;;;5070262;28;20032;-70
2022/04/13 17:51:35;;;;;;;15.73;7.05;;;;;;;;;;5070287;28;20048;-70
2022/04/13 17:54:40;;;;;;;21.70;8.20;;;;;;;;;;5069571;28;20048;-70
2022/04/13 17:57:44;;;;;;;15.63;6.78;;;;;;;;;;5058187;28;20057;-70
2022/04/13 18:00:48;;;;;;;19.77;6.63;;;;;;;;;;5070379;28;20036;-70
2022/04/13 18:03:53;;;;;;;15.98;6.28;;;;;;;;;;5069209;28;20053;-69
2022/04/13 18:06:57;;;;;;;18.73;6.65;;;;;;;;;;5070324;28;20041;-70
2022/04/13 18:10:03;;;;;;;16.08;7.47;;;;;;;;;;5071020;28;20060;-69